createdAt,value
2017-09-22T00:00:04.322Z,12.32
2017-09-22T00:02:31.873Z,11.85
2017-09-22T00:04:59.409Z,11.90
2017-09-22T00:07:27.713Z,11.27
2017-09-22T00:09:55.252Z,12.45
2017-09-22T00:12:23.567Z,16.27
2017-09-22T00:14:51.108Z,15.73
2017-09-22T00:17:18.640Z,14.87
2017-09-22T00:19:46.963Z,14.75
2017-09-22T00:22:14.524Z,14.50
2017-09-22T00:24:42.052Z,11.60
2017-09-22T00:27:09.581Z,15.23
2017-09-22T00:29:37.129Z,13.15
2017-09-22T00:32:04.669Z,14.07
2017-09-22T00:34:32.213Z,14.05
2017-09-22T00:36:59.753Z,14.25
2017-09-22T00:39:27.309Z,15.15
2017-09-22T00:41:54.853Z,17.00
2017-09-22T00:44:22.397Z,16.20
2017-09-22T00:46:49.941Z,15.18
2017-09-22T00:49:17.481Z,16.85
2017-09-22T00:51:45.046Z,14.82
2017-09-22T00:54:12.580Z,12.70
2017-09-22T00:56:40.894Z,12.90
2017-09-22T00:59:08.454Z,14.87
2017-09-22T01:01:35.990Z,13.52
2017-09-22T01:04:04.320Z,12.77
2017-09-22T01:06:31.847Z,14.18
2017-09-22T01:08:59.398Z,12.77
2017-09-22T01:11:26.926Z,16.33
2017-09-22T01:13:55.242Z,16.35
2017-09-22T01:16:22.818Z,15.80
2017-09-22T01:18:50.372Z,16.15
2017-09-22T01:21:17.939Z,18.87
2017-09-22T01:23:45.501Z,18.25
2017-09-22T01:26:13.037Z,17.80
2017-09-22T01:28:40.565Z,23.52
2017-09-22T01:31:08.130Z,17.85
2017-09-22T01:33:35.661Z,12.70
2017-09-22T01:36:03.214Z,13.98
2017-09-22T01:38:30.748Z,14.32
2017-09-22T01:40:59.031Z,17.45
2017-09-22T01:43:26.581Z,14.10
2017-09-22T01:45:54.125Z,15.10
2017-09-22T01:48:22.441Z,15.02
2017-09-22T01:50:49.982Z,19.40
2017-09-22T01:53:17.549Z,15.93
2017-09-22T01:55:45.095Z,18.87
2017-09-22T01:58:12.649Z,15.60
2017-09-22T02:00:40.193Z,15.07
2017-09-22T02:03:08.490Z,17.77
2017-09-22T02:05:36.049Z,13.90
2017-09-22T02:08:03.581Z,13.25
2017-09-22T02:10:31.900Z,11.95
2017-09-22T02:12:59.432Z,14.57
2017-09-22T02:15:26.990Z,12.55
2017-09-22T02:17:55.290Z,11.82
2017-09-22T02:20:22.817Z,14.98
2017-09-22T02:22:51.137Z,13.55
2017-09-22T02:25:18.677Z,14.80
2017-09-22T02:27:46.217Z,17.52
2017-09-22T02:30:14.609Z,14.45
2017-09-22T02:32:42.161Z,14.02
2017-09-22T02:35:09.701Z,15.05
2017-09-22T02:37:37.242Z,14.52
2017-09-22T02:40:04.789Z,11.32
2017-09-22T02:42:32.334Z,13.57
2017-09-22T02:44:59.877Z,12.65
2017-09-22T02:47:27.400Z,16.20
2017-09-22T02:49:55.723Z,14.38
2017-09-22T02:52:23.266Z,13.35
2017-09-22T02:54:50.823Z,15.48
2017-09-22T02:57:18.381Z,14.68
2017-09-22T02:59:45.909Z,14.43
2017-09-22T03:02:14.229Z,15.95
2017-09-22T03:04:41.761Z,15.05
2017-09-22T03:07:09.309Z,17.17
2017-09-22T03:09:37.597Z,15.32
2017-09-22T03:12:05.148Z,20.80
2017-09-22T03:14:32.705Z,24.37
2017-09-22T03:17:00.240Z,17.10
2017-09-22T03:19:27.797Z,18.23
2017-09-22T03:21:55.331Z,14.77
2017-09-22T03:24:22.884Z,18.08
2017-09-22T03:26:50.419Z,14.48
2017-09-22T03:29:17.945Z,14.98
2017-09-22T03:31:45.502Z,14.30
2017-09-22T03:34:13.034Z,13.70
2017-09-22T03:36:40.581Z,14.25
2017-09-22T03:39:08.116Z,15.40
2017-09-22T03:41:35.671Z,16.20
2017-09-22T03:44:03.230Z,16.35
2017-09-22T03:46:30.777Z,16.55
2017-09-22T03:48:58.305Z,14.52
2017-09-22T03:51:26.603Z,16.37
2017-09-22T03:53:54.157Z,15.48
2017-09-22T03:56:21.685Z,15.65
2017-09-22T03:58:50.006Z,16.58
2017-09-22T04:01:17.544Z,18.20
2017-09-22T04:03:45.101Z,18.95
2017-09-22T04:06:12.643Z,19.77
2017-09-22T04:08:40.987Z,15.77
2017-09-22T04:11:08.536Z,14.00
2017-09-22T04:13:36.057Z,17.48
2017-09-22T04:16:03.609Z,16.05
2017-09-22T04:18:31.897Z,16.05
2017-09-22T04:20:59.456Z,18.00
2017-09-22T04:23:26.993Z,18.35
2017-09-22T04:25:55.315Z,16.45
2017-09-22T04:28:22.877Z,16.40
2017-09-22T04:30:50.416Z,19.40
2017-09-22T04:33:17.972Z,15.27
2017-09-22T04:35:46.273Z,17.98
2017-09-22T04:38:13.806Z,17.55
2017-09-22T04:40:41.393Z,16.45
2017-09-22T04:43:08.925Z,18.48
2017-09-22T04:45:36.471Z,17.60
2017-09-22T04:48:05.305Z,19.33
2017-09-22T04:50:32.854Z,19.25
2017-09-22T04:53:00.379Z,18.05
2017-09-22T04:55:28.701Z,19.75
2017-09-22T04:57:57.242Z,16.50
2017-09-22T05:00:25.537Z,19.92
2017-09-22T05:02:53.089Z,19.73
2017-09-22T05:05:21.402Z,18.65
2017-09-22T05:07:48.946Z,19.60
2017-09-22T05:10:16.479Z,18.10
2017-09-22T05:12:44.797Z,20.88
2017-09-22T05:15:12.326Z,17.67
2017-09-22T05:17:40.649Z,18.65
2017-09-22T05:20:08.173Z,18.30
2017-09-22T05:22:35.723Z,20.12
2017-09-22T05:25:03.252Z,20.40
2017-09-22T05:27:30.781Z,19.83
2017-09-22T05:29:58.337Z,16.65
2017-09-22T05:32:25.878Z,18.55
2017-09-22T05:34:53.410Z,19.95
2017-09-22T05:37:21.727Z,17.80
2017-09-22T05:39:49.288Z,20.17
2017-09-22T05:42:16.822Z,19.95
2017-09-22T05:44:44.351Z,16.50
2017-09-22T05:47:11.910Z,18.15
2017-09-22T05:49:39.443Z,16.58
2017-09-22T05:52:06.989Z,17.98
2017-09-22T05:54:34.509Z,19.25
2017-09-22T05:57:02.841Z,19.58
2017-09-22T05:59:30.369Z,17.62
2017-09-22T06:01:57.914Z,14.32
2017-09-22T06:04:25.442Z,20.10
2017-09-22T06:06:53.757Z,20.40
2017-09-22T06:09:21.318Z,14.25
2017-09-22T06:11:48.873Z,17.45
2017-09-22T06:14:16.455Z,13.55
2017-09-22T06:16:43.987Z,18.62
2017-09-22T06:19:11.534Z,13.73
2017-09-22T06:21:39.829Z,16.50
2017-09-22T06:24:10.617Z,15.30
2017-09-22T06:26:39.067Z,18.00
2017-09-22T06:29:06.641Z,14.98
2017-09-22T06:31:34.184Z,18.40
2017-09-22T06:34:01.853Z,20.12
2017-09-22T06:36:29.384Z,14.10
2017-09-22T06:38:57.239Z,16.48
2017-09-22T06:41:25.560Z,15.95
2017-09-22T06:43:53.094Z,17.50
2017-09-22T06:46:20.640Z,15.00
2017-09-22T06:48:48.933Z,15.50
2017-09-22T06:51:16.510Z,18.02
2017-09-22T06:53:44.041Z,15.23
2017-09-22T06:56:12.372Z,14.75
2017-09-22T06:58:39.922Z,15.68
2017-09-22T07:01:07.449Z,14.30
2017-09-22T07:03:35.023Z,12.80
2017-09-22T07:06:02.552Z,17.55
2017-09-22T07:08:30.870Z,12.23
2017-09-22T07:10:58.417Z,15.70
2017-09-22T07:13:26.943Z,18.10
2017-09-22T07:15:54.513Z,16.80
2017-09-22T07:18:23.250Z,14.98
2017-09-22T07:20:50.825Z,20.83
2017-09-22T07:23:18.366Z,14.48
2017-09-22T07:25:45.930Z,16.92
2017-09-22T07:28:13.473Z,13.02
2017-09-22T07:30:41.008Z,15.40
2017-09-22T07:33:09.322Z,12.35
2017-09-22T07:35:36.869Z,12.40
2017-09-22T07:38:04.424Z,12.65
2017-09-22T07:40:31.974Z,13.68
2017-09-22T07:42:59.526Z,13.93
2017-09-22T07:45:27.841Z,14.82
2017-09-22T07:47:55.409Z,12.52
2017-09-22T07:50:22.936Z,14.20
2017-09-22T07:52:50.496Z,11.32
2017-09-22T07:55:18.138Z,12.27
2017-09-22T07:57:46.491Z,11.48
2017-09-22T08:00:14.033Z,8.70
2017-09-22T08:02:41.597Z,9.50
2017-09-22T08:05:09.165Z,10.13
2017-09-22T08:07:36.710Z,7.43
2017-09-22T08:10:04.250Z,8.07
2017-09-22T08:12:31.781Z,9.53
2017-09-22T08:15:00.112Z,9.20
2017-09-22T08:17:27.656Z,8.90
2017-09-22T08:19:55.204Z,10.07
2017-09-22T08:22:22.740Z,12.07
2017-09-22T08:24:51.040Z,9.40
2017-09-22T08:27:18.579Z,9.10
2017-09-22T08:29:46.896Z,9.90
2017-09-22T08:32:14.461Z,8.17
2017-09-22T08:34:41.996Z,9.00
2017-09-22T08:37:09.541Z,9.17
2017-09-22T08:39:37.838Z,9.63
2017-09-22T08:42:05.381Z,8.90
2017-09-22T08:44:32.930Z,10.93
2017-09-22T08:47:01.230Z,9.13
2017-09-22T08:49:28.783Z,8.70
2017-09-22T08:51:56.333Z,8.80
2017-09-22T08:54:24.622Z,8.10
2017-09-22T08:56:52.169Z,7.80
2017-09-22T08:59:20.473Z,6.57
2017-09-22T09:01:48.045Z,7.70
2017-09-22T09:04:15.570Z,7.10
2017-09-22T09:06:43.120Z,8.03
2017-09-22T09:09:11.410Z,7.73
2017-09-22T09:11:38.962Z,8.10
2017-09-22T09:14:06.553Z,7.70
2017-09-22T09:16:34.089Z,7.77
2017-09-22T09:19:01.653Z,7.30
2017-09-22T09:21:29.206Z,7.00
2017-09-22T09:23:56.765Z,7.07
2017-09-22T09:26:24.317Z,6.33
2017-09-22T09:28:51.877Z,7.20
2017-09-22T09:31:19.438Z,7.23
2017-09-22T09:33:46.968Z,7.40
2017-09-22T09:36:14.527Z,7.90
2017-09-22T09:38:42.122Z,7.60
2017-09-22T09:41:09.637Z,7.17
2017-09-22T09:43:37.186Z,7.97
2017-09-22T09:46:05.505Z,7.27
2017-09-22T09:48:33.044Z,9.40
2017-09-22T09:51:00.584Z,6.67
2017-09-22T09:53:28.132Z,7.23
2017-09-22T09:55:55.694Z,6.23
2017-09-22T09:58:23.988Z,6.40
2017-09-22T10:00:51.586Z,6.63
2017-09-22T10:03:19.120Z,5.90
2017-09-22T10:05:46.653Z,5.80
2017-09-22T10:08:14.198Z,6.00
2017-09-22T10:10:41.758Z,6.83
2017-09-22T10:13:09.280Z,5.50
2017-09-22T10:15:36.843Z,6.73
2017-09-22T10:18:04.373Z,6.17
2017-09-22T10:20:32.662Z,5.93
2017-09-22T10:23:00.992Z,5.67
2017-09-22T10:25:28.532Z,5.00
2017-09-22T10:27:56.081Z,5.10
2017-09-22T10:30:23.625Z,5.80
2017-09-22T10:32:51.158Z,5.47
2017-09-22T10:35:18.698Z,5.87
2017-09-22T10:37:46.241Z,5.67
2017-09-22T10:40:13.802Z,4.87
2017-09-22T10:42:41.337Z,4.60
2017-09-22T10:45:08.876Z,4.67
2017-09-22T10:47:37.177Z,4.50
2017-09-22T10:50:04.716Z,5.50
2017-09-22T10:52:32.260Z,4.50
2017-09-22T10:54:59.793Z,5.20
2017-09-22T10:57:27.353Z,3.97
2017-09-22T10:59:54.897Z,6.23
2017-09-22T11:02:22.461Z,5.60
2017-09-22T11:04:50.010Z,3.87
2017-09-22T11:07:18.334Z,4.10
2017-09-22T11:09:45.869Z,4.07
2017-09-22T11:12:13.417Z,3.87
2017-09-22T11:14:41.211Z,5.07
2017-09-22T11:17:08.755Z,3.40
2017-09-22T11:19:37.056Z,4.00
2017-09-22T11:22:04.617Z,3.43
2017-09-22T11:24:32.143Z,4.30
2017-09-22T11:27:00.482Z,3.30
2017-09-22T11:29:28.013Z,4.03
2017-09-22T11:31:55.103Z,3.60
2017-09-22T11:34:22.656Z,5.33
2017-09-22T11:36:50.205Z,6.70
2017-09-22T11:39:17.771Z,5.77
2017-09-22T11:41:45.305Z,3.97
2017-09-22T11:44:12.852Z,3.37
2017-09-22T11:46:40.381Z,3.47
2017-09-22T11:49:07.904Z,3.80
2017-09-22T11:51:35.454Z,3.33
2017-09-22T11:54:02.976Z,3.83
2017-09-22T11:56:31.304Z,4.00
2017-09-22T11:58:58.836Z,3.80
2017-09-22T12:01:26.409Z,3.83
2017-09-22T12:03:53.954Z,4.53
2017-09-22T12:06:23.013Z,4.57
2017-09-22T12:08:50.576Z,4.70
2017-09-22T12:11:18.122Z,3.73
2017-09-22T12:13:45.665Z,4.63
2017-09-22T12:16:13.197Z,3.60
2017-09-22T12:18:40.745Z,5.63
2017-09-22T12:21:08.317Z,4.40
2017-09-22T12:23:35.852Z,4.87
2017-09-22T12:26:03.414Z,2.93
2017-09-22T12:28:30.951Z,3.43
2017-09-22T12:30:58.512Z,3.80
2017-09-22T12:33:26.054Z,4.00
2017-09-22T12:35:53.589Z,3.37
2017-09-22T12:38:21.910Z,6.80
2017-09-22T12:40:49.446Z,3.13
2017-09-22T12:43:17.041Z,4.23
2017-09-22T12:45:44.572Z,2.80
2017-09-22T12:48:12.115Z,4.33
2017-09-22T12:50:39.689Z,3.40
2017-09-22T12:53:07.217Z,3.60
2017-09-22T12:55:34.761Z,3.37
2017-09-22T12:58:02.333Z,4.10
2017-09-22T13:00:29.879Z,3.27
2017-09-22T13:02:57.410Z,3.67
2017-09-22T13:05:25.751Z,3.27
2017-09-22T13:07:53.335Z,3.70
2017-09-22T13:10:20.952Z,4.00
2017-09-22T13:12:48.533Z,4.37
2017-09-22T13:15:16.079Z,3.13
2017-09-22T13:17:43.629Z,3.90
2017-09-22T13:20:11.178Z,4.97
2017-09-22T13:22:38.701Z,3.70
2017-09-22T13:25:07.050Z,6.23
2017-09-22T13:27:34.581Z,3.53
2017-09-22T13:30:02.149Z,2.80
2017-09-22T13:32:29.688Z,3.27
2017-09-22T13:34:57.265Z,3.90
2017-09-22T13:37:24.822Z,4.57
2017-09-22T13:39:52.350Z,4.43
2017-09-22T13:42:20.662Z,4.30
2017-09-22T13:44:48.188Z,3.93
2017-09-22T13:47:15.743Z,3.03
2017-09-22T13:49:43.307Z,4.00
2017-09-22T13:52:10.860Z,4.57
2017-09-22T13:54:38.385Z,3.70
2017-09-22T13:57:05.950Z,3.87
2017-09-22T13:59:33.480Z,4.57
2017-09-22T14:02:01.795Z,3.80
2017-09-22T14:04:29.334Z,4.20
2017-09-22T14:06:56.876Z,3.87
2017-09-22T14:09:25.185Z,4.47
2017-09-22T14:11:52.727Z,6.30
2017-09-22T14:14:20.255Z,4.90
2017-09-22T14:16:47.824Z,7.70
2017-09-22T14:19:15.345Z,8.20
2017-09-22T14:21:42.917Z,4.70
2017-09-22T14:24:10.447Z,4.50
2017-09-22T14:26:38.982Z,4.77
2017-09-22T14:29:07.304Z,4.00
2017-09-22T14:31:34.851Z,4.93
2017-09-22T14:34:02.397Z,4.43
2017-09-22T14:36:30.698Z,5.07
2017-09-22T14:38:58.244Z,4.00
2017-09-22T14:41:25.768Z,4.57
2017-09-22T14:43:54.080Z,5.13
2017-09-22T14:46:21.615Z,4.80
2017-09-22T14:48:49.938Z,4.53
2017-09-22T14:51:17.465Z,5.50
2017-09-22T14:53:45.789Z,6.10
2017-09-22T14:56:13.315Z,4.77
2017-09-22T14:58:40.869Z,6.67
2017-09-22T15:01:09.166Z,5.60
2017-09-22T15:03:36.690Z,5.10
2017-09-22T15:06:05.114Z,5.27
2017-09-22T15:08:32.637Z,4.70
2017-09-22T15:11:00.197Z,4.67
2017-09-22T15:13:27.721Z,5.40
2017-09-22T15:15:56.027Z,5.60
2017-09-22T15:18:23.591Z,6.03
2017-09-22T15:20:51.145Z,5.23
2017-09-22T15:23:18.679Z,6.33
2017-09-22T15:25:47.010Z,6.47
2017-09-22T15:28:14.555Z,6.33
2017-09-22T15:30:42.124Z,6.20
2017-09-22T15:33:09.648Z,5.87
2017-09-22T15:35:37.956Z,7.63
2017-09-22T15:38:05.500Z,6.73
2017-09-22T15:40:33.046Z,4.63
2017-09-22T15:43:00.566Z,6.10
2017-09-22T15:45:28.128Z,5.63
2017-09-22T15:47:55.673Z,5.30
2017-09-22T15:50:23.997Z,4.63
2017-09-22T15:52:51.565Z,4.67
2017-09-22T15:55:19.118Z,4.97
2017-09-22T15:57:46.692Z,5.33
2017-09-22T16:00:14.223Z,3.63
2017-09-22T16:02:41.794Z,3.80
2017-09-22T16:05:09.326Z,3.47
2017-09-22T16:07:36.881Z,3.23
2017-09-22T16:10:04.417Z,4.50
2017-09-22T16:12:32.739Z,13.90
2017-09-22T16:15:00.273Z,4.73
2017-09-22T16:17:28.589Z,4.13
2017-09-22T16:19:56.156Z,3.50
2017-09-22T16:22:23.683Z,3.93
2017-09-22T16:24:51.228Z,4.37
2017-09-22T16:27:19.534Z,2.50
2017-09-22T16:29:47.094Z,2.87
2017-09-22T16:32:14.629Z,5.80
2017-09-22T16:34:42.189Z,6.07
2017-09-22T16:37:09.741Z,5.50
2017-09-22T16:39:37.281Z,4.27
2017-09-22T16:42:05.631Z,2.90
2017-09-22T16:44:33.170Z,3.30
2017-09-22T16:47:00.750Z,3.10
2017-09-22T16:49:28.286Z,3.03
2017-09-22T16:51:55.841Z,5.10
2017-09-22T16:54:23.384Z,2.67
2017-09-22T16:56:51.705Z,3.47
2017-09-22T16:59:19.237Z,3.40
2017-09-22T17:01:46.825Z,3.50
2017-09-22T17:04:14.380Z,3.83
2017-09-22T17:06:41.918Z,4.77
2017-09-22T17:09:09.476Z,3.40
2017-09-22T17:11:37.015Z,3.17
2017-09-22T17:14:04.587Z,8.07
2017-09-22T17:16:32.150Z,3.93
2017-09-22T17:18:59.717Z,4.33
2017-09-22T17:21:27.262Z,4.30
2017-09-22T17:23:55.581Z,3.53
2017-09-22T17:26:23.117Z,4.27
2017-09-22T17:28:50.697Z,4.73
2017-09-22T17:31:18.260Z,4.90
2017-09-22T17:33:45.801Z,4.60
2017-09-22T17:36:13.356Z,6.33
2017-09-22T17:38:40.924Z,5.77
2017-09-22T17:41:08.481Z,5.87
2017-09-22T17:43:36.014Z,6.30
2017-09-22T17:46:04.216Z,5.83
2017-09-22T17:48:31.879Z,6.07
2017-09-22T17:50:59.427Z,4.80
2017-09-22T17:53:26.960Z,4.43
2017-09-22T17:55:55.288Z,5.07
2017-09-22T17:58:22.834Z,5.60
2017-09-22T18:00:50.375Z,5.93
2017-09-22T18:03:17.925Z,4.50
2017-09-22T18:05:45.461Z,5.20
2017-09-22T18:08:13.009Z,5.13
2017-09-22T18:10:40.554Z,4.50
2017-09-22T18:13:08.115Z,5.80
2017-09-22T18:15:35.654Z,4.60
2017-09-22T18:18:03.202Z,5.30
2017-09-22T18:20:30.749Z,5.07
2017-09-22T18:22:58.284Z,5.30
2017-09-22T18:25:25.877Z,5.90
2017-09-22T18:27:53.428Z,5.50
2017-09-22T18:30:20.966Z,4.77
2017-09-22T18:32:49.271Z,5.10
2017-09-22T18:35:16.851Z,5.07
2017-09-22T18:37:44.417Z,4.60
2017-09-22T18:40:11.977Z,7.13
2017-09-22T18:42:39.506Z,6.37
2017-09-22T18:45:07.081Z,5.87
2017-09-22T18:47:34.638Z,5.33
2017-09-22T18:50:02.170Z,6.90
2017-09-22T18:52:30.508Z,5.07
2017-09-22T18:54:58.047Z,10.20
2017-09-22T18:57:25.605Z,6.07
2017-09-22T18:59:53.159Z,5.50
2017-09-22T19:02:20.695Z,6.73
2017-09-22T19:04:48.254Z,7.40
2017-09-22T19:07:16.663Z,6.20
2017-09-22T19:09:44.224Z,5.47
2017-09-22T19:12:11.762Z,8.30
2017-09-22T19:14:39.286Z,7.70
2017-09-22T19:17:06.850Z,6.30
2017-09-22T19:19:35.180Z,6.10
2017-09-22T19:22:02.726Z,7.70
2017-09-22T19:24:30.288Z,6.37
2017-09-22T19:26:57.828Z,7.47
2017-09-22T19:29:25.408Z,9.93
2017-09-22T19:31:52.944Z,8.07
2017-09-22T19:34:21.316Z,8.30
2017-09-22T19:36:49.643Z,8.13
2017-09-22T19:39:17.213Z,7.65
2017-09-22T19:41:44.774Z,10.60
2017-09-22T19:44:12.329Z,11.70
2017-09-22T19:46:39.877Z,9.70
2017-09-22T19:49:07.412Z,8.95
2017-09-22T19:51:34.997Z,8.68
2017-09-22T19:54:02.534Z,9.45
2017-09-22T19:56:30.089Z,8.75
2017-09-22T19:58:57.626Z,8.40
2017-09-22T20:01:25.969Z,9.52
2017-09-22T20:03:53.506Z,10.82
2017-09-22T20:06:21.053Z,9.75
2017-09-22T20:08:48.625Z,9.07
2017-09-22T20:11:16.166Z,9.20
2017-09-22T20:13:43.737Z,9.60
2017-09-22T20:16:11.270Z,8.05
2017-09-22T20:18:39.593Z,11.48
2017-09-22T20:21:07.148Z,8.85
2017-09-22T20:23:34.732Z,9.30
2017-09-22T20:26:02.317Z,9.30
2017-09-22T20:28:30.626Z,10.00
2017-09-22T20:30:58.326Z,10.35
2017-09-22T20:33:25.882Z,11.27
2017-09-22T20:35:53.530Z,9.85
2017-09-22T20:38:21.062Z,10.02
2017-09-22T20:40:48.596Z,10.40
2017-09-22T20:43:16.924Z,10.85
2017-09-22T20:45:44.469Z,13.32
2017-09-22T20:48:12.033Z,13.25
2017-09-22T20:50:39.581Z,11.77
2017-09-22T20:53:07.117Z,12.07
2017-09-22T20:55:35.434Z,9.68
2017-09-22T20:58:02.985Z,12.10
2017-09-22T21:00:30.549Z,10.98
2017-09-22T21:02:58.081Z,11.68
2017-09-22T21:05:26.418Z,12.70
2017-09-22T21:07:53.960Z,13.00
2017-09-22T21:10:21.524Z,10.90
2017-09-22T21:12:49.182Z,13.98
2017-09-22T21:15:16.749Z,11.80
2017-09-22T21:17:44.361Z,12.82
2017-09-22T21:20:12.670Z,11.60
2017-09-22T21:22:40.228Z,14.40
2017-09-22T21:25:07.793Z,13.07
2017-09-22T21:27:35.353Z,15.57
2017-09-22T21:30:02.914Z,12.80
2017-09-22T21:32:32.237Z,11.93
2017-09-22T21:34:59.798Z,11.45
2017-09-22T21:37:27.345Z,13.38
2017-09-22T21:39:54.942Z,14.02
2017-09-22T21:42:23.266Z,11.95
2017-09-22T21:44:50.819Z,11.60
2017-09-22T21:47:18.361Z,12.55
2017-09-22T21:49:46.662Z,15.57
2017-09-22T21:52:14.241Z,14.52
2017-09-22T21:54:42.104Z,12.82
2017-09-22T21:57:09.764Z,14.85
2017-09-22T21:59:37.389Z,11.60
2017-09-22T22:02:05.805Z,13.55
2017-09-22T22:04:38.955Z,12.68
2017-09-22T22:07:13.153Z,11.02
2017-09-22T22:09:40.748Z,10.50
2017-09-22T22:12:08.354Z,13.05
2017-09-22T22:14:35.932Z,12.10
2017-09-22T22:17:03.541Z,12.43
2017-09-22T22:19:31.222Z,14.85
2017-09-22T22:21:58.816Z,14.13
2017-09-22T22:24:26.406Z,11.68
2017-09-22T22:26:54.737Z,11.02
2017-09-22T22:29:22.345Z,12.20
2017-09-22T22:31:50.713Z,11.82
2017-09-22T22:34:19.090Z,11.73
2017-09-22T22:50:09.784Z,9.55
2017-09-22T22:52:38.125Z,10.52
2017-09-22T22:55:05.712Z,9.30
2017-09-22T22:57:33.302Z,10.38
2017-09-22T23:00:00.896Z,10.60
2017-09-22T23:02:28.493Z,13.93
2017-09-22T23:04:56.083Z,11.85
2017-09-22T23:07:23.700Z,16.10
2017-09-22T23:09:51.285Z,12.00
2017-09-22T23:12:19.669Z,12.13
2017-09-22T23:14:48.034Z,10.55
2017-09-22T23:17:15.650Z,16.62
2017-09-22T23:19:43.336Z,10.45
2017-09-22T23:22:10.949Z,12.00
2017-09-22T23:24:38.552Z,12.88
2017-09-22T23:27:06.149Z,12.48
2017-09-22T23:29:34.532Z,11.38
2017-09-22T23:32:02.912Z,11.05
2017-09-22T23:34:31.295Z,13.02
2017-09-22T23:36:59.707Z,11.90
2017-09-22T23:39:27.281Z,11.25
2017-09-22T23:41:54.887Z,13.23
2017-09-22T23:44:23.241Z,11.20
2017-09-22T23:46:50.845Z,11.23
2017-09-22T23:49:18.427Z,13.23
2017-09-22T23:51:46.035Z,15.30
2017-09-22T23:54:13.625Z,11.27
2017-09-22T23:56:41.235Z,13.18
2017-09-22T23:59:08.825Z,12.40
